Time;durP1;ratioP1;P1;durP2;ratioP2;P2;SDS_P1;SDS_P2;PMS_P1;PMS_P2;Temp;Humidity;BMP_temperature;BMP_pressure;BME280_temperature;BME280_humidity;BME280_pressure;Samples;Min_cycle;Max_cycle;Signal;HPM_P1;HPM_P2
2023/12/23 00:01:40;;;;;;;13.27;2.83;;;15.60;77.30;;;;;;4181477;28;20051;-53
2023/12/23 00:04:20;;;;;;;11.52;2.17;;;15.60;77.10;;;;;;4185640;28;20157;-59
2023/12/23 00:07:01;;;;;;;9.95;2.33;;;15.60;77.10;;;;;;4182717;28;20403;-59
2023/12/23 00:09:42;;;;;;;9.68;2.15;;;15.60;77.30;;;;;;4185508;28;20060;-58
2023/12/23 00:12:23;;;;;;;7.25;2.28;;;15.60;77.30;;;;;;4186583;28;20564;-59
2023/12/23 00:15:07;;;;;;;15.50;3.30;;;15.70;77.50;;;;;;4185828;28;20189;-58
2023/12/23 00:17:48;;;;;;;9.23;2.35;;;15.70;77.10;;;;;;4185728;28;20048;-59
2023/12/23 00:20:30;;;;;;;15.43;2.90;;;15.70;77.10;;;;;;4187176;28;20052;-59
2023/12/23 00:23:12;;;;;;;12.27;2.45;;;15.70;77.00;;;;;;4182782;28;20048;-59
2023/12/23 00:25:54;;;;;;;8.90;2.35;;;15.70;77.10;;;;;;4171763;28;20102;-60
2023/12/23 00:28:35;;;;;;;10.68;2.28;;;15.80;77.00;;;;;;4186669;28;20052;-60
2023/12/23 00:31:18;;;;;;;6.60;2.05;;;15.70;77.00;;;;;;4185583;28;20044;-58
2023/12/23 00:33:59;;;;;;;12.18;2.30;;;15.80;77.40;;;;;;4190280;28;20051;-58
2023/12/23 00:36:40;;;;;;;7.63;2.33;;;15.80;77.30;;;;;;4184168;28;20051;-58
2023/12/23 00:39:21;;;;;;;8.68;1.80;;;15.80;77.20;;;;;;4171558;28;20059;-59
2023/12/23 00:42:02;;;;;;;11.32;2.15;;;15.80;77.20;;;;;;4188792;28;20047;-58
2023/12/23 00:44:43;;;;;;;4.57;1.40;;;15.80;76.90;;;;;;4189805;28;20107;-59
2023/12/23 00:47:26;;;;;;;10.85;2.83;;;15.80;77.20;;;;;;4188468;28;20129;-59
2023/12/23 00:50:12;;;;;;;12.70;2.15;;;15.80;77.40;;;;;;4189924;28;20051;-51
2023/12/23 00:52:53;;;;;;;15.27;2.33;;;15.80;77.40;;;;;;4188052;28;20548;-50
2023/12/23 00:55:33;;;;;;;14.68;2.70;;;15.80;77.20;;;;;;4171785;28;20114;-53
2023/12/23 00:58:14;;;;;;;10.38;2.67;;;15.90;77.10;;;;;;4172572;28;20052;-50
2023/12/23 01:00:55;;;;;;;6.00;1.90;;;15.90;77.00;;;;;;4172308;28;20043;-52
2023/12/23 01:03:38;;;;;;;8.95;2.47;;;15.80;76.80;;;;;;4189343;28;20531;-52
2023/12/23 01:06:18;;;;;;;12.80;2.05;;;15.80;77.10;;;;;;4189179;28;20436;-51
2023/12/23 01:08:59;;;;;;;10.05;2.42;;;15.80;77.30;;;;;;4183697;28;20064;-53
2023/12/23 01:11:41;;;;;;;10.68;2.08;;;15.80;77.50;;;;;;4188126;28;20434;-51
2023/12/23 01:14:21;;;;;;;12.13;2.70;;;15.70;77.60;;;;;;4184180;28;20051;-50
2023/12/23 01:17:03;;;;;;;12.32;3.10;;;15.70;77.80;;;;;;4171543;28;20500;-52
2023/12/23 01:19:46;;;;;;;9.18;2.58;;;15.60;78.30;;;;;;4171993;28;20044;-51
2023/12/23 01:22:27;;;;;;;10.90;2.20;;;15.60;78.60;;;;;;4182221;28;20059;-49
2023/12/23 01:25:09;;;;;;;12.82;2.95;;;15.60;79.10;;;;;;4156721;28;20048;-58
2023/12/23 01:27:49;;;;;;;9.73;2.55;;;15.70;78.80;;;;;;4187281;28;20182;-59
2023/12/23 01:30:31;;;;;;;12.18;2.13;;;15.70;78.50;;;;;;4188938;28;20133;-58
2023/12/23 01:33:12;;;;;;;10.75;2.72;;;15.80;78.10;;;;;;4184637;28;20071;-58
2023/12/23 01:35:54;;;;;;;9.00;2.80;;;15.80;78.00;;;;;;4173262;28;20408;-58
2023/12/23 01:38:35;;;;;;;13.52;3.50;;;15.80;77.90;;;;;;4172212;28;20136;-58
2023/12/23 01:41:16;;;;;;;12.52;2.65;;;15.90;77.90;;;;;;4184661;28;20051;-57
2023/12/23 01:43:57;;;;;;;10.95;2.53;;;16.00;77.50;;;;;;4187328;28;20051;-58
2023/12/23 01:46:40;;;;;;;7.55;2.65;;;16.00;77.40;;;;;;4188746;28;20071;-58
2023/12/23 01:49:23;;;;;;;9.90;2.22;;;16.00;77.10;;;;;;4188746;28;20075;-57
2023/12/23 01:52:06;;;;;;;8.80;2.50;;;16.10;77.30;;;;;;4170341;28;20195;-58
2023/12/23 01:54:47;;;;;;;8.90;1.85;;;16.10;77.20;;;;;;4170916;28;20067;-58
2023/12/23 01:57:28;;;;;;;7.60;1.75;;;16.10;77.20;;;;;;4155598;28;20176;-59
2023/12/23 02:00:10;;;;;;;14.68;2.22;;;16.10;77.10;;;;;;4155858;28;20499;-58
2023/12/23 02:02:52;;;;;;;8.02;2.22;;;16.00;77.50;;;;;;4159853;28;20056;-59
2023/12/23 02:05:33;;;;;;;8.60;1.90;;;16.00;77.50;;;;;;4188365;28;20060;-58
2023/12/23 02:08:15;;;;;;;13.65;2.40;;;15.90;77.70;;;;;;4171599;28;20051;-58
2023/12/23 02:11:05;;;;;;;8.77;1.70;;;15.90;78.30;;;;;;4169595;28;20057;-58
2023/12/23 02:13:54;;;;;;;9.68;1.85;;;15.80;78.10;;;;;;4159159;28;20052;-58
2023/12/23 02:16:36;;;;;;;8.82;2.22;;;15.90;77.80;;;;;;4170571;28;20555;-58
2023/12/23 02:19:17;;;;;;;8.40;2.05;;;15.90;77.70;;;;;;4179056;28;20068;-58
2023/12/23 02:21:59;;;;;;;6.82;1.58;;;15.90;78.20;;;;;;4187641;28;20079;-59
2023/12/23 02:24:41;;;;;;;6.75;1.90;;;16.00;77.80;;;;;;4187440;28;20110;-59
2023/12/23 02:27:29;;;;;;;5.28;1.88;;;16.10;77.40;;;;;;4184720;28;20094;-58
2023/12/23 02:30:13;;;;;;;5.43;1.38;;;16.20;77.10;;;;;;4187670;28;20109;-58
2023/12/23 02:32:55;;;;;;;8.00;2.00;;;16.20;76.80;;;;;;4171585;28;20121;-56
2023/12/23 02:35:36;;;;;;;7.38;1.20;;;16.20;76.70;;;;;;4154053;28;20504;-58
2023/12/23 02:38:20;;;;;;;4.70;1.45;;;16.30;76.30;;;;;;4171202;28;20072;-58
2023/12/23 02:41:00;;;;;;;6.85;1.42;;;16.20;76.10;;;;;;4172226;28;20093;-58
2023/12/23 02:43:42;;;;;;;1.83;0.85;;;16.20;75.90;;;;;;4170218;28;20507;-58
2023/12/23 02:46:22;;;;;;;5.90;2.00;;;16.10;76.00;;;;;;4183534;28;20051;-58
2023/12/23 02:49:03;;;;;;;5.15;1.25;;;16.10;76.60;;;;;;4187745;28;20059;-58
2023/12/23 02:51:44;;;;;;;6.13;1.77;;;16.20;76.50;;;;;;4187572;28;20056;-58
2023/12/23 02:54:27;;;;;;;4.20;0.95;;;16.20;76.40;;;;;;4184904;28;20051;-58
2023/12/23 02:57:08;;;;;;;4.78;1.58;;;16.20;76.40;;;;;;4154349;28;20079;-58
2023/12/23 02:59:49;;;;;;;10.52;1.85;;;16.20;75.90;;;;;;4159951;28;20052;-58
2023/12/23 03:02:30;;;;;;;6.65;1.83;;;16.20;76.20;;;;;;4170615;28;20051;-58
2023/12/23 03:05:11;;;;;;;;;;;16.20;76.50;;;;;;4186543;28;20105;-58
2023/12/23 03:07:52;;;;;;;8.30;1.87;;;16.20;76.80;;;;;;4186331;28;19931;-57
2023/12/23 03:10:34;;;;;;;8.43;2.08;;;16.30;77.00;;;;;;4169070;28;20099;-58
2023/12/23 03:13:15;;;;;;;8.98;1.60;;;16.40;76.60;;;;;;4186792;28;20079;-57
2023/12/23 03:15:56;;;;;;;7.65;1.73;;;16.40;76.30;;;;;;4197813;28;20093;-58
2023/12/23 03:18:37;;;;;;;8.18;1.98;;;16.40;76.10;;;;;;4187547;28;20582;-58
2023/12/23 03:21:22;;;;;;;7.38;1.70;;;16.40;76.10;;;;;;4187049;28;20170;-58
2023/12/23 03:24:03;;;;;;;6.35;1.35;;;16.40;76.30;;;;;;4185646;28;20055;-58
2023/12/23 03:26:46;;;;;;;4.18;1.30;;;16.40;76.20;;;;;;4179747;28;20056;-56
2023/12/23 03:29:26;;;;;;;4.28;1.63;;;16.40;76.10;;;;;;4165267;28;20056;-58
2023/12/23 03:32:07;;;;;;;8.13;1.60;;;16.40;76.10;;;;;;4180438;28;20064;-58
2023/12/23 03:34:49;;;;;;;7.47;1.48;;;16.40;76.50;;;;;;4168971;28;20044;-58
2023/12/23 03:37:30;;;;;;;6.47;1.27;;;16.30;76.70;;;;;;4171017;28;20084;-58
2023/12/23 03:40:12;;;;;;;5.30;1.33;;;16.30;76.70;;;;;;4170380;28;20481;-56
2023/12/23 03:42:54;;;;;;;7.10;1.02;;;16.20;76.70;;;;;;4184664;28;20171;-58
2023/12/23 03:45:35;;;;;;;7.20;2.03;;;16.20;76.90;;;;;;4169247;28;20063;-58
2023/12/23 03:48:16;;;;;;;4.00;1.40;;;16.10;77.40;;;;;;4169903;28;20063;-58
2023/12/23 03:50:57;;;;;;;7.72;1.20;;;16.10;78.50;;;;;;4170164;28;20052;-58
2023/12/23 03:53:38;;;;;;;7.25;1.65;;;16.10;77.90;;;;;;4181019;28;20059;-57
2023/12/23 03:56:19;;;;;;;4.80;1.33;;;16.10;78.70;;;;;;4186295;28;20055;-57
2023/12/23 03:59:01;;;;;;;4.43;1.73;;;16.10;78.20;;;;;;4185645;28;20506;-56
2023/12/23 04:01:44;;;;;;;8.63;1.60;;;16.20;78.00;;;;;;4182926;28;20059;-55
2023/12/23 04:04:25;;;;;;;5.95;1.10;;;16.20;77.70;;;;;;4185384;28;20125;-58
2023/12/23 04:07:06;;;;;;;6.03;1.40;;;16.30;77.50;;;;;;4188735;28;20062;-58
2023/12/23 04:09:47;;;;;;;6.10;1.80;;;16.30;77.80;;;;;;4186137;28;20122;-57
2023/12/23 04:12:28;;;;;;;3.78;1.23;;;16.30;77.60;;;;;;4159434;28;20072;-57
2023/12/23 04:15:11;;;;;;;4.45;1.15;;;16.40;77.20;;;;;;4190137;28;20056;-58
2023/12/23 04:17:52;;;;;;;5.57;1.10;;;16.40;77.00;;;;;;4189318;28;20093;-58
2023/12/23 04:20:33;;;;;;;4.53;1.50;;;16.40;77.10;;;;;;4176908;28;20076;-58
2023/12/23 04:23:14;;;;;;;4.53;1.00;;;16.40;77.30;;;;;;4161652;28;20057;-57
2023/12/23 04:25:55;;;;;;;4.03;0.95;;;16.40;77.30;;;;;;4157123;28;20088;-57
2023/12/23 04:28:37;;;;;;;3.95;1.05;;;16.40;77.20;;;;;;4170683;28;20129;-57
2023/12/23 04:31:19;;;;;;;2.37;0.90;;;16.50;77.00;;;;;;4170545;28;20097;-58
2023/12/23 04:34:00;;;;;;;1.88;0.88;;;16.50;76.90;;;;;;4175219;28;20049;-58
2023/12/23 04:36:41;;;;;;;1.80;0.98;;;16.40;76.80;;;;;;4159219;28;20404;-57
2023/12/23 04:39:22;;;;;;;2.10;0.82;;;16.40;77.00;;;;;;4189102;28;20083;-58
2023/12/23 04:42:03;;;;;;;;;;;16.40;77.90;;;;;;4171852;28;20064;-58
2023/12/23 04:44:45;;;;;;;2.22;0.60;;;16.40;77.20;;;;;;4171769;28;20383;-56
2023/12/23 04:47:28;;;;;;;2.25;0.80;;;16.40;77.50;;;;;;4171267;28;20105;-55
2023/12/23 04:50:09;;;;;;;3.95;0.88;;;16.40;77.70;;;;;;4171944;28;20052;-54
2023/12/23 04:52:51;;;;;;;2.75;1.05;;;16.40;77.60;;;;;;4181459;28;20075;-53
2023/12/23 04:55:35;;;;;;;3.40;1.45;;;16.40;77.50;;;;;;4186420;28;20225;-57
2023/12/23 04:58:17;;;;;;;2.65;0.80;;;16.40;77.50;;;;;;4172142;28;20055;-58
2023/12/23 05:00:58;;;;;;;3.00;0.77;;;16.40;77.60;;;;;;4176133;28;20056;-57
2023/12/23 05:03:41;;;;;;;;;;;16.50;77.50;;;;;;4188565;28;20530;-54
2023/12/23 05:06:22;;;;;;;2.65;0.70;;;16.50;77.30;;;;;;4187897;28;19930;-58
2023/12/23 05:09:05;;;;;;;0.98;0.60;;;16.50;76.80;;;;;;4189100;28;20158;-57
2023/12/23 05:11:46;;;;;;;1.17;0.45;;;16.50;76.70;;;;;;4171140;28;20059;-57
2023/12/23 05:14:27;;;;;;;2.25;0.60;;;16.40;77.00;;;;;;4179439;28;20101;-57
2023/12/23 05:17:08;;;;;;;2.97;0.60;;;16.40;76.90;;;;;;4189104;28;20059;-56
2023/12/23 05:19:52;;;;;;;2.38;0.68;;;16.50;76.90;;;;;;4187646;28;20067;-57
2023/12/23 05:22:35;;;;;;;1.95;0.65;;;16.40;76.90;;;;;;4188241;28;20125;-58
2023/12/23 05:25:16;;;;;;;3.10;0.68;;;16.40;77.10;;;;;;4187495;28;20055;-57
2023/12/23 05:27:57;;;;;;;1.65;0.70;;;16.40;77.20;;;;;;4188525;28;20051;-57
2023/12/23 05:30:38;;;;;;;1.02;0.30;;;16.40;77.40;;;;;;4179685;28;20379;-57
2023/12/23 05:33:20;;;;;;;0.98;0.57;;;16.50;77.10;;;;;;4174922;28;20044;-58
2023/12/23 05:36:03;;;;;;;1.17;0.68;;;16.50;77.00;;;;;;4171902;28;20473;-57
2023/12/23 05:38:44;;;;;;;3.58;0.77;;;16.50;76.70;;;;;;4188275;28;20087;-60
2023/12/23 05:41:25;;;;;;;3.13;0.60;;;16.50;76.90;;;;;;4171194;28;20056;-58
2023/12/23 05:44:07;;;;;;;1.75;0.50;;;16.40;76.90;;;;;;4171384;28;20052;-57
2023/12/23 05:46:48;;;;;;;1.23;0.30;;;16.40;77.50;;;;;;4172676;28;20056;-57
2023/12/23 05:49:29;;;;;;;1.85;0.52;;;16.30;77.50;;;;;;4171558;28;20067;-57
2023/12/23 05:52:12;;;;;;;1.35;0.50;;;16.30;77.60;;;;;;4186437;28;20198;-57
2023/12/23 05:54:53;;;;;;;1.05;0.40;;;16.30;78.60;;;;;;4178345;28;20059;-57
2023/12/23 05:57:33;;;;;;;0.65;0.32;;;16.30;78.20;;;;;;4192735;28;20507;-57
2023/12/23 06:00:15;;;;;;;1.80;0.47;;;16.30;78.00;;;;;;4186332;28;20060;-54
2023/12/23 06:02:56;;;;;;;1.55;0.43;;;16.30;77.90;;;;;;4188080;28;20048;-55
2023/12/23 06:05:38;;;;;;;1.20;0.30;;;16.40;77.80;;;;;;4170970;28;20072;-56
2023/12/23 06:08:20;;;;;;;2.28;0.70;;;16.30;77.70;;;;;;4171891;28;20130;-54
2023/12/23 06:11:02;;;;;;;1.33;0.50;;;16.30;78.10;;;;;;4171630;28;20048;-56
2023/12/23 06:13:45;;;;;;;2.67;0.40;;;16.40;78.00;;;;;;4171568;28;20052;-54
2023/12/23 06:16:26;;;;;;;0.30;0.30;;;16.40;78.70;;;;;;4170929;28;20510;-54
2023/12/23 06:19:07;;;;;;;0.85;0.50;;;16.40;77.80;;;;;;4158979;28;20057;-52
2023/12/23 06:21:48;;;;;;;0.47;0.30;;;16.40;77.80;;;;;;4154393;28;20056;-54
2023/12/23 06:24:31;;;;;;;1.58;0.32;;;16.40;77.70;;;;;;4170793;28;20392;-55
2023/12/23 06:27:13;;;;;;;0.88;0.50;;;16.50;77.70;;;;;;4171178;28;20044;-54
2023/12/23 06:29:54;;;;;;;1.70;0.50;;;16.50;77.50;;;;;;4185506;28;20182;-54
2023/12/23 06:32:35;;;;;;;1.45;0.50;;;16.40;77.40;;;;;;4187125;28;20218;-54
2023/12/23 06:35:17;;;;;;;2.17;0.60;;;16.40;77.60;;;;;;4187472;28;20059;-55
2023/12/23 06:37:58;;;;;;;0.65;0.40;;;16.40;78.00;;;;;;4170207;28;20063;-56
2023/12/23 06:40:41;;;;;;;1.75;0.40;;;16.40;78.10;;;;;;4170808;28;20740;-55
2023/12/23 06:43:22;;;;;;;0.43;0.30;;;16.40;77.80;;;;;;4169618;28;20055;-56
2023/12/23 06:46:22;;;;;;;2.55;0.52;;;16.50;77.80;;;;;;4186916;28;20400;-56
2023/12/23 06:49:03;;;;;;;0.93;0.40;;;16.50;78.70;;;;;;4187447;28;20182;-57
2023/12/23 06:51:44;;;;;;;;;;;16.60;77.80;;;;;;4174296;28;20150;-57
2023/12/23 06:54:25;;;;;;;1.33;0.40;;;16.60;77.90;;;;;;4157230;28;19928;-57
2023/12/23 06:57:08;;;;;;;2.15;0.90;;;16.60;77.90;;;;;;4152853;28;20083;-58
2023/12/23 06:59:49;;;;;;;0.82;0.50;;;16.50;77.80;;;;;;4162097;28;20096;-59
2023/12/23 07:02:30;;;;;;;1.13;0.40;;;16.50;78.20;;;;;;4181419;28;20467;-58
2023/12/23 07:05:11;;;;;;;0.30;0.30;;;16.50;78.50;;;;;;4170105;28;20055;-58
2023/12/23 07:07:52;;;;;;;1.48;0.45;;;16.50;79.40;;;;;;4186594;28;20121;-58
2023/12/23 07:10:33;;;;;;;0.65;0.30;;;16.50;78.70;;;;;;4170407;28;20056;-58
2023/12/23 07:13:15;;;;;;;1.00;0.40;;;16.50;78.80;;;;;;4158837;28;20075;-58
2023/12/23 07:15:56;;;;;;;1.73;0.40;;;16.50;79.10;;;;;;4153860;28;20052;-58
2023/12/23 07:18:37;;;;;;;0.63;0.32;;;16.50;79.30;;;;;;4152763;28;20526;-55
2023/12/23 07:21:18;;;;;;;1.45;0.40;;;16.50;79.20;;;;;;4170089;28;20384;-52
2023/12/23 07:23:59;;;;;;;1.42;0.50;;;16.50;78.80;;;;;;4169340;28;20500;-49
2023/12/23 07:26:40;;;;;;;0.70;0.30;;;16.50;78.70;;;;;;4161571;28;20056;-53
2023/12/23 07:29:23;;;;;;;0.20;0.20;;;16.50;79.70;;;;;;4170208;28;20461;-51
2023/12/23 07:32:05;;;;;;;0.30;0.30;;;16.40;78.80;;;;;;4172637;28;20056;-51
2023/12/23 07:34:46;;;;;;;1.25;0.38;;;16.40;78.70;;;;;;4182793;28;20376;-55
2023/12/23 07:37:27;;;;;;;0.20;0.20;;;16.40;78.00;;;;;;4170154;28;20075;-54
2023/12/23 07:40:09;;;;;;;0.20;0.20;;;16.40;76.70;;;;;;4154123;28;20113;-59
2023/12/23 07:42:50;;;;;;;0.20;0.20;;;16.30;75.30;;;;;;4158970;28;20603;-49
2023/12/23 07:45:32;;;;;;;0.50;0.43;;;16.20;74.90;;;;;;4169808;28;20048;-50
2023/12/23 07:48:14;;;;;;;1.52;0.68;;;16.10;74.50;;;;;;4186760;28;20190;-47
2023/12/23 07:50:55;;;;;;;1.65;0.40;;;16.00;75.40;;;;;;4185908;28;20052;-49
2023/12/23 07:53:36;;;;;;;0.90;0.40;;;16.00;75.20;;;;;;4186632;28;20063;-49
2023/12/23 07:56:17;;;;;;;0.28;0.28;;;16.00;74.90;;;;;;4186808;28;20055;-53
2023/12/23 07:58:58;;;;;;;0.40;0.30;;;16.10;74.70;;;;;;4182894;28;20079;-52
2023/12/23 08:01:45;;;;;;;0.55;0.25;;;16.10;74.20;;;;;;4183369;28;20430;-51
2023/12/23 08:04:26;;;;;;;1.85;0.50;;;16.00;73.80;;;;;;4186784;28;20044;-49
2023/12/23 08:07:07;;;;;;;0.77;0.30;;;16.00;73.80;;;;;;4185961;28;20047;-50
2023/12/23 08:09:48;;;;;;;1.02;0.30;;;16.10;73.90;;;;;;4186700;28;20054;-52
2023/12/23 08:12:29;;;;;;;0.98;0.40;;;16.00;73.90;;;;;;4186057;28;20182;-52
2023/12/23 08:15:11;;;;;;;0.38;0.30;;;16.10;73.70;;;;;;4161222;28;20064;-50
2023/12/23 08:17:54;;;;;;;0.40;0.32;;;16.10;73.50;;;;;;4181047;28;20051;-47
2023/12/23 08:20:34;;;;;;;0.85;0.55;;;16.10;74.20;;;;;;4186228;28;20514;-48
2023/12/23 08:23:15;;;;;;;0.85;0.40;;;16.20;73.30;;;;;;4182230;28;20048;-48
2023/12/23 08:25:57;;;;;;;0.57;0.55;;;16.10;73.30;;;;;;4169393;28;20048;-47
2023/12/23 08:28:38;;;;;;;1.10;0.63;;;16.10;73.40;;;;;;4157555;28;20101;-49
2023/12/23 08:31:18;;;;;;;0.50;0.50;;;16.20;73.70;;;;;;4182408;28;20048;-52
2023/12/23 08:34:01;;;;;;;2.05;0.47;;;16.30;73.00;;;;;;4178106;28;20298;-53
2023/12/23 08:36:42;;;;;;;1.08;0.75;;;16.30;73.20;;;;;;4184877;28;20052;-57
2023/12/23 08:39:23;;;;;;;1.38;1.00;;;16.30;73.10;;;;;;4153161;28;20184;-47
2023/12/23 08:42:04;;;;;;;0.80;0.80;;;16.30;73.50;;;;;;4167604;28;20060;-49
2023/12/23 08:44:45;;;;;;;0.65;0.65;;;16.40;73.60;;;;;;4155909;28;20421;-48
2023/12/23 08:47:26;;;;;;;1.38;0.60;;;16.40;73.40;;;;;;4155715;28;20103;-49
2023/12/23 08:50:09;;;;;;;0.50;0.50;;;16.40;73.60;;;;;;4155831;28;20424;-54
2023/12/23 08:52:50;;;;;;;0.57;0.50;;;16.40;73.30;;;;;;4169309;28;20109;-51
2023/12/23 08:55:31;;;;;;;1.65;0.55;;;16.40;73.40;;;;;;4165288;28;20141;-53
2023/12/23 08:58:14;;;;;;;0.77;0.50;;;16.40;73.30;;;;;;4182013;28;20114;-52
2023/12/23 09:00:55;;;;;;;0.40;0.40;;;16.40;73.20;;;;;;4174411;28;20400;-52
2023/12/23 09:03:36;;;;;;;0.40;0.40;;;16.30;72.80;;;;;;4183470;28;20431;-53
2023/12/23 09:06:18;;;;;;;1.55;0.40;;;16.30;73.10;;;;;;4173724;28;20059;-53
2023/12/23 09:09:00;;;;;;;1.00;0.43;;;16.40;73.20;;;;;;4168641;28;20052;-58
2023/12/23 09:11:43;;;;;;;0.60;0.60;;;16.30;73.50;;;;;;4185032;28;20063;-53
2023/12/23 09:14:24;;;;;;;1.70;0.50;;;16.30;73.50;;;;;;4176058;28;20969;-55
2023/12/23 09:17:06;;;;;;;1.15;0.30;;;16.20;73.50;;;;;;4173859;28;20075;-51
2023/12/23 09:19:46;;;;;;;0.30;0.30;;;16.20;73.20;;;;;;4174475;28;20067;-53
2023/12/23 09:22:29;;;;;;;0.57;0.50;;;16.10;73.80;;;;;;4175320;28;20059;-52
2023/12/23 09:25:10;;;;;;;1.48;0.35;;;16.00;74.10;;;;;;4172162;28;20149;-52
2023/12/23 09:27:51;;;;;;;;;;;16.00;74.30;;;;;;4174208;28;20098;-50
2023/12/23 09:30:32;;;;;;;0.50;0.50;;;16.10;75.10;;;;;;4180705;28;19997;-53
2023/12/23 09:33:14;;;;;;;0.20;0.20;;;16.30;74.60;;;;;;4172017;28;20060;-51
2023/12/23 09:35:54;;;;;;;0.98;0.50;;;16.70;73.40;;;;;;4170820;28;20052;-53
2023/12/23 09:38:37;;;;;;;0.60;0.60;;;17.20;72.70;;;;;;4183359;28;20059;-52
2023/12/23 09:41:18;;;;;;;0.57;0.50;;;17.60;70.00;;;;;;4169558;28;20087;-55
2023/12/23 09:44:00;;;;;;;0.38;0.38;;;18.10;68.70;;;;;;4172934;28;20067;-53
2023/12/23 09:46:41;;;;;;;0.52;0.52;;;18.60;67.00;;;;;;4168865;28;20182;-52
2023/12/23 09:49:24;;;;;;;0.50;0.50;;;19.00;65.30;;;;;;4179674;28;20051;-53
2023/12/23 09:52:05;;;;;;;0.77;0.60;;;19.40;64.00;;;;;;4169181;28;20060;-54
2023/12/23 09:54:52;;;;;;;0.50;0.50;;;19.70;62.60;;;;;;4180346;28;20060;-49
2023/12/23 09:57:34;;;;;;;0.75;0.75;;;19.90;61.60;;;;;;4173526;28;20056;-51
2023/12/23 10:00:16;;;;;;;1.13;0.45;;;20.10;60.90;;;;;;4180019;28;20108;-53
2023/12/23 10:02:56;;;;;;;0.30;0.30;;;20.30;60.20;;;;;;4185889;28;20073;-52
2023/12/23 10:05:42;;;;;;;1.55;1.45;;;20.40;60.20;;;;;;4185313;28;20611;-51
2023/12/23 10:08:24;;;;;;;0.60;0.60;;;20.40;60.00;;;;;;4169141;28;20408;-53
2023/12/23 10:11:06;;;;;;;1.85;0.90;;;20.30;59.90;;;;;;4168771;28;20060;-54
2023/12/23 10:13:47;;;;;;;0.70;0.70;;;20.20;60.40;;;;;;4175425;28;20191;-56
2023/12/23 10:16:28;;;;;;;2.13;1.00;;;20.10;61.10;;;;;;4184046;28;20074;-51
2023/12/23 10:19:10;;;;;;;1.50;1.40;;;19.90;62.20;;;;;;4184369;28;20090;-57
2023/12/23 10:21:51;;;;;;;1.23;0.60;;;19.70;62.20;;;;;;4176957;28;20097;-54
2023/12/23 10:24:32;;;;;;;1.05;1.00;;;19.70;62.70;;;;;;4174886;28;20060;-51
2023/12/23 10:27:16;;;;;;;2.17;0.98;;;19.60;62.80;;;;;;4180415;28;20063;-50
2023/12/23 10:30:03;;;;;;;1.00;0.80;;;19.60;62.70;;;;;;4184110;28;20051;-56
2023/12/23 10:32:48;;;;;;;0.60;0.60;;;19.60;63.00;;;;;;4169521;28;20055;-50
2023/12/23 10:35:33;;;;;;;0.90;0.90;;;19.50;62.60;;;;;;4176513;28;20068;-52
2023/12/23 10:38:17;;;;;;;1.15;0.80;;;19.60;62.60;;;;;;4174232;28;20064;-55
2023/12/23 10:41:17;;;;;;;0.73;0.73;;;19.60;62.70;;;;;;4169671;28;20056;-65
2023/12/23 10:44:01;;;;;;;0.73;0.73;;;19.60;62.70;;;;;;4170383;28;20095;-51
2023/12/23 10:46:42;;;;;;;1.55;0.88;;;19.60;62.50;;;;;;4168360;28;20083;-52
2023/12/23 10:49:25;;;;;;;0.40;0.40;;;19.70;62.50;;;;;;4172123;28;20183;-52
2023/12/23 10:52:08;;;;;;;0.60;0.60;;;19.70;62.50;;;;;;4183063;28;20051;-54
2023/12/23 10:54:49;;;;;;;0.70;0.70;;;19.80;62.50;;;;;;4170061;28;20121;-51
2023/12/23 10:57:31;;;;;;;;;;;19.80;62.40;;;;;;4182618;28;20063;-56
2023/12/23 11:00:15;;;;;;;;;;;19.80;62.30;;;;;;4177231;28;19931;-53
2023/12/23 11:02:58;;;;;;;1.17;1.15;;;19.80;62.60;;;;;;4184380;28;19947;-57
2023/12/23 11:05:42;;;;;;;1.73;0.80;;;19.80;63.10;;;;;;4183975;28;20048;-57
2023/12/23 11:08:26;;;;;;;1.20;1.20;;;19.80;63.20;;;;;;4173050;28;20052;-56
2023/12/23 11:11:06;;;;;;;1.02;0.90;;;19.80;63.40;;;;;;4171558;28;20056;-56
2023/12/23 11:13:47;;;;;;;1.25;1.25;;;19.80;63.30;;;;;;4172942;28;20071;-56
2023/12/23 11:16:30;;;;;;;1.80;1.33;;;19.80;63.40;;;;;;4180889;28;20085;-56
2023/12/23 11:19:12;;;;;;;0.80;0.80;;;19.80;63.30;;;;;;4170495;28;20114;-55
2023/12/23 11:22:20;;;;;;;0.70;0.70;;;19.90;63.20;;;;;;4168594;28;20183;-57
2023/12/23 11:25:01;;;;;;;1.88;1.05;;;19.90;62.90;;;;;;4167661;28;20503;-56
2023/12/23 11:27:42;;;;;;;0.85;0.85;;;19.90;63.00;;;;;;4171535;28;20071;-56
2023/12/23 11:30:24;;;;;;;1.00;1.00;;;19.90;62.80;;;;;;4179556;28;20399;-57
2023/12/23 11:33:08;;;;;;;0.93;0.93;;;20.00;62.90;;;;;;4167695;28;20079;-56
2023/12/23 11:35:51;;;;;;;0.70;0.70;;;20.00;62.60;;;;;;4167405;28;20056;-56
2023/12/23 11:38:46;;;;;;;1.08;1.08;;;20.00;62.50;;;;;;4175967;28;20488;-56
2023/12/23 11:41:28;;;;;;;1.30;1.30;;;20.00;62.70;;;;;;4179225;28;20108;-56
2023/12/23 11:44:11;;;;;;;1.00;1.00;;;20.00;62.90;;;;;;4167398;28;20507;-57
2023/12/23 11:46:55;;;;;;;0.85;0.85;;;19.90;62.70;;;;;;4167861;28;20056;-55
2023/12/23 11:49:39;;;;;;;1.00;1.00;;;19.90;62.70;;;;;;4184031;28;20194;-56
2023/12/23 11:52:20;;;;;;;1.13;1.13;;;19.70;63.40;;;;;;4167059;28;20087;-56
2023/12/23 11:55:02;;;;;;;0.90;0.90;;;19.60;63.80;;;;;;4169549;28;20082;-56
2023/12/23 11:57:43;;;;;;;0.80;0.80;;;19.50;64.50;;;;;;4173777;28;20511;-57
2023/12/23 12:00:24;;;;;;;0.70;0.70;;;19.40;65.00;;;;;;4167190;28;20182;-56
2023/12/23 12:03:06;;;;;;;0.60;0.60;;;19.30;64.90;;;;;;4170635;28;20398;-56
2023/12/23 12:05:54;;;;;;;0.85;0.77;;;19.30;65.30;;;;;;4177960;28;20059;-56
2023/12/23 12:08:37;;;;;;;0.85;0.85;;;19.30;65.60;;;;;;4176920;28;20075;-60
2023/12/23 12:11:18;;;;;;;0.65;0.65;;;19.20;65.70;;;;;;4173394;28;20068;-49
2023/12/23 12:14:00;;;;;;;;;;;19.30;65.60;;;;;;4182824;28;20059;-52
2023/12/23 12:16:41;;;;;;;0.70;0.70;;;19.40;65.70;;;;;;4181511;28;20062;-60
2023/12/23 12:19:22;;;;;;;0.70;0.70;;;19.40;65.70;;;;;;4173987;28;20093;-58
2023/12/23 12:22:05;;;;;;;0.90;0.90;;;19.50;65.50;;;;;;4178047;28;20408;-58
2023/12/23 12:24:46;;;;;;;2.50;1.08;;;19.50;64.90;;;;;;4180883;28;20221;-57
2023/12/23 12:27:27;;;;;;;0.88;0.88;;;19.60;65.20;;;;;;4167761;28;20063;-54
2023/12/23 12:30:09;;;;;;;0.80;0.80;;;19.60;64.80;;;;;;4185424;28;20060;-52
2023/12/23 12:32:52;;;;;;;0.90;0.90;;;19.70;64.80;;;;;;4181306;28;20076;-55
2023/12/23 12:35:34;;;;;;;0.63;0.63;;;19.70;64.80;;;;;;4185803;28;20063;-53
2023/12/23 12:38:18;;;;;;;0.60;0.60;;;19.80;64.60;;;;;;4170029;28;20071;-55
2023/12/23 12:41:02;;;;;;;0.90;0.90;;;19.80;64.60;;;;;;4170190;28;20399;-51
2023/12/23 12:43:44;;;;;;;3.50;1.08;;;19.90;64.50;;;;;;4177547;28;20074;-53
2023/12/23 12:46:25;;;;;;;0.98;0.98;;;19.90;64.20;;;;;;4170640;28;20094;-53
2023/12/23 12:49:07;;;;;;;0.60;0.60;;;19.80;64.10;;;;;;4169504;28;20098;-50
2023/12/23 12:51:49;;;;;;;0.70;0.70;;;19.80;64.60;;;;;;4170560;28;20070;-55
2023/12/23 12:54:32;;;;;;;;;;;19.80;65.60;;;;;;4172301;28;20194;-54
2023/12/23 12:57:12;;;;;;;0.50;0.50;;;19.80;65.20;;;;;;4174891;28;19931;-54
2023/12/23 12:59:54;;;;;;;;;;;19.70;65.40;;;;;;4183233;28;20056;-53
2023/12/23 13:02:35;;;;;;;0.55;0.55;;;19.70;65.90;;;;;;4185471;28;19927;-52
2023/12/23 13:05:16;;;;;;;0.80;0.80;;;19.70;66.00;;;;;;4184932;28;20064;-55
2023/12/23 13:07:57;;;;;;;0.80;0.80;;;19.60;65.90;;;;;;4185836;28;20059;-53
2023/12/23 13:10:40;;;;;;;0.98;0.98;;;19.60;65.40;;;;;;4185213;28;20055;-54
2023/12/23 13:13:21;;;;;;;0.85;0.85;;;19.60;66.00;;;;;;4169897;28;20198;-53
2023/12/23 13:16:03;;;;;;;1.05;1.05;;;19.70;66.40;;;;;;4177852;28;20092;-55
2023/12/23 13:18:44;;;;;;;0.70;0.70;;;19.70;66.10;;;;;;4173623;28;20396;-52
2023/12/23 13:21:29;;;;;;;1.05;0.77;;;19.80;66.20;;;;;;4169667;28;20056;-50
2023/12/23 13:24:11;;;;;;;2.78;0.98;;;19.80;66.00;;;;;;4168842;28;20079;-52
2023/12/23 13:26:53;;;;;;;0.70;0.70;;;19.80;66.20;;;;;;4184956;28;20075;-54
2023/12/23 13:29:35;;;;;;;0.82;0.82;;;19.80;66.20;;;;;;4162842;28;20055;-51
2023/12/23 13:32:16;;;;;;;0.95;0.95;;;19.80;66.70;;;;;;4169719;28;20064;-51
2023/12/23 13:34:57;;;;;;;0.80;0.80;;;19.70;66.90;;;;;;4169863;28;20131;-49
2023/12/23 13:37:40;;;;;;;1.13;1.13;;;19.70;67.40;;;;;;4173706;28;20063;-55
2023/12/23 13:40:21;;;;;;;1.30;1.30;;;19.70;67.40;;;;;;4169447;28;20064;-53
2023/12/23 13:43:03;;;;;;;1.58;1.48;;;19.60;67.40;;;;;;4183213;28;21015;-49
2023/12/23 13:45:45;;;;;;;1.33;1.33;;;19.60;67.50;;;;;;4172457;28;20063;-51
2023/12/23 13:48:26;;;;;;;1.30;1.30;;;19.60;68.10;;;;;;4172676;28;20052;-48
2023/12/23 13:51:07;;;;;;;1.40;1.40;;;19.50;67.60;;;;;;4178207;28;20068;-52
2023/12/23 13:53:48;;;;;;;2.40;1.92;;;19.50;67.50;;;;;;4174167;28;20060;-50
2023/12/23 13:56:30;;;;;;;1.92;1.77;;;19.40;68.00;;;;;;4181115;28;20059;-51
2023/12/23 13:59:12;;;;;;;1.67;1.58;;;19.30;68.30;;;;;;4182933;28;20059;-48
2023/12/23 14:01:53;;;;;;;1.50;1.50;;;19.20;68.70;;;;;;4170555;28;20052;-49
2023/12/23 14:04:34;;;;;;;2.00;1.90;;;19.10;69.30;;;;;;4169071;28;20194;-49